sensor_id;sensor_type;location;lat;lon;timestamp;pressure;altitude;pressure_sealevel;temperature;humidity
70690;BME280;58267;51.156;17.044;2023-02-11T00:02:18;101838.32;;;2.81;39.51
70690;BME280;58267;51.156;17.044;2023-02-11T00:04:44;101832.56;;;3.07;39.16
70690;BME280;58267;51.156;17.044;2023-02-11T00:07:09;101826.84;;;2.84;38.99
70690;BME280;58267;51.156;17.044;2023-02-11T00:09:35;101822.40;;;2.94;39.20
70690;BME280;58267;51.156;17.044;2023-02-11T00:11:59;101822.02;;;3.18;38.92
70690;BME280;58267;51.156;17.044;2023-02-11T00:14:25;101822.70;;;3.46;38.76
70690;BME280;58267;51.156;17.044;2023-02-11T00:16:51;101820.07;;;3.58;38.57
70690;BME280;58267;51.156;17.044;2023-02-11T00:19:16;101817.83;;;3.37;38.61
70690;BME280;58267;51.156;17.044;2023-02-11T00:21:41;101818.25;;;3.08;38.51
70690;BME280;58267;51.156;17.044;2023-02-11T00:24:07;101818.40;;;3.08;38.79
70690;BME280;58267;51.156;17.044;2023-02-11T00:26:34;101817.83;;;3.15;38.83
70690;BME280;58267;51.156;17.044;2023-02-11T00:28:58;101813.55;;;3.05;39.06
70690;BME280;58267;51.156;17.044;2023-02-11T00:31:23;101813.49;;;2.72;39.46
70690;BME280;58267;51.156;17.044;2023-02-11T00:33:48;101804.66;;;3.25;39.04
70690;BME280;58267;51.156;17.044;2023-02-11T00:36:16;101802.57;;;2.86;39.62
70690;BME280;58267;51.156;17.044;2023-02-11T00:38:42;101802.08;;;3.03;39.16
70690;BME280;58267;51.156;17.044;2023-02-11T00:41:05;101797.46;;;3.23;38.77
70690;BME280;58267;51.156;17.044;2023-02-11T00:43:31;101796.99;;;3.45;38.49
70690;BME280;58267;51.156;17.044;2023-02-11T00:45:56;101797.25;;;3.17;38.51
70690;BME280;58267;51.156;17.044;2023-02-11T00:48:22;101804.57;;;3.30;38.23
70690;BME280;58267;51.156;17.044;2023-02-11T00:50:48;101793.69;;;4.12;37.53
70690;BME280;58267;51.156;17.044;2023-02-11T00:53:13;101790.01;;;4.08;37.22
70690;BME280;58267;51.156;17.044;2023-02-11T00:55:39;101787.09;;;3.58;37.78
70690;BME280;58267;51.156;17.044;2023-02-11T00:58:04;101785.42;;;3.56;37.92
70690;BME280;58267;51.156;17.044;2023-02-11T01:00:30;101777.13;;;3.56;38.22
70690;BME280;58267;51.156;17.044;2023-02-11T01:02:55;101774.10;;;3.68;38.14
70690;BME280;58267;51.156;17.044;2023-02-11T01:05:21;101769.07;;;3.49;38.44
70690;BME280;58267;51.156;17.044;2023-02-11T01:07:47;101770.97;;;3.61;37.91
70690;BME280;58267;51.156;17.044;2023-02-11T01:10:12;101773.01;;;3.61;37.89
70690;BME280;58267;51.156;17.044;2023-02-11T01:12:38;101766.20;;;3.59;37.90
70690;BME280;58267;51.156;17.044;2023-02-11T01:15:05;101761.55;;;3.58;38.25
70690;BME280;58267;51.156;17.044;2023-02-11T01:17:29;101760.34;;;3.33;38.22
70690;BME280;58267;51.156;17.044;2023-02-11T01:19:55;101754.18;;;3.40;38.61
70690;BME280;58267;51.156;17.044;2023-02-11T01:22:20;101747.42;;;3.65;38.16
70690;BME280;58267;51.156;17.044;2023-02-11T01:24:45;101736.94;;;3.55;38.32
70690;BME280;58267;51.156;17.044;2023-02-11T01:27:11;101734.55;;;3.50;38.37
70690;BME280;58267;51.156;17.044;2023-02-11T01:29:37;101731.56;;;3.13;38.87
70690;BME280;58267;51.156;17.044;2023-02-11T01:32:03;101731.45;;;3.22;38.83
70690;BME280;58267;51.156;17.044;2023-02-11T01:34:28;101722.23;;;3.60;38.24
70690;BME280;58267;51.156;17.044;2023-02-11T01:36:56;101720.13;;;3.21;38.42
70690;BME280;58267;51.156;17.044;2023-02-11T01:39:18;101715.68;;;3.46;38.44
70690;BME280;58267;51.156;17.044;2023-02-11T01:41:45;101709.40;;;3.56;38.32
70690;BME280;58267;51.156;17.044;2023-02-11T01:46:36;101698.28;;;3.43;38.45
70690;BME280;58267;51.156;17.044;2023-02-11T01:49:05;101691.68;;;3.17;38.51
70690;BME280;58267;51.156;17.044;2023-02-11T01:51:29;101691.33;;;3.35;38.62
70690;BME280;58267;51.156;17.044;2023-02-11T01:53:52;101682.20;;;3.41;38.47
70690;BME280;58267;51.156;17.044;2023-02-11T01:56:17;101681.18;;;3.13;38.80
70690;BME280;58267;51.156;17.044;2023-02-11T01:58:44;101680.27;;;3.32;38.65
70690;BME280;58267;51.156;17.044;2023-02-11T02:01:08;101685.05;;;3.40;38.45
70690;BME280;58267;51.156;17.044;2023-02-11T02:03:33;101682.41;;;3.58;38.25
70690;BME280;58267;51.156;17.044;2023-02-11T02:06:02;101668.04;;;3.29;38.60
70690;BME280;58267;51.156;17.044;2023-02-11T02:08:28;101669.43;;;3.35;38.49
70690;BME280;58267;51.156;17.044;2023-02-11T02:10:51;101663.36;;;3.67;38.10
70690;BME280;58267;51.156;17.044;2023-02-11T02:13:15;101668.06;;;3.21;38.60
70690;BME280;58267;51.156;17.044;2023-02-11T02:15:46;101661.02;;;3.65;38.15
70690;BME280;58267;51.156;17.044;2023-02-11T02:18:16;101653.47;;;3.27;38.18
70690;BME280;58267;51.156;17.044;2023-02-11T02:20:42;101647.05;;;3.21;38.22
70690;BME280;58267;51.156;17.044;2023-02-11T02:25:36;101640.02;;;3.48;38.17
70690;BME280;58267;51.156;17.044;2023-02-11T02:27:54;101640.54;;;3.76;37.86
70690;BME280;58267;51.156;17.044;2023-02-11T02:30:27;101633.46;;;3.63;37.69
70690;BME280;58267;51.156;17.044;2023-02-11T02:32:49;101629.82;;;3.92;37.55
70690;BME280;58267;51.156;17.044;2023-02-11T02:35:14;101632.55;;;3.74;37.77
70690;BME280;58267;51.156;17.044;2023-02-11T02:37:36;101625.58;;;4.02;37.44
70690;BME280;58267;51.156;17.044;2023-02-11T02:39:59;101620.43;;;3.65;37.40
70690;BME280;58267;51.156;17.044;2023-02-11T02:42:22;101617.26;;;3.92;37.45
70690;BME280;58267;51.156;17.044;2023-02-11T02:44:48;101616.52;;;3.55;37.22
70690;BME280;58267;51.156;17.044;2023-02-11T02:47:13;101618.03;;;3.67;37.60
70690;BME280;58267;51.156;17.044;2023-02-11T02:49:39;101610.93;;;3.39;37.66
70690;BME280;58267;51.156;17.044;2023-02-11T02:52:15;101604.88;;;3.72;37.63
70690;BME280;58267;51.156;17.044;2023-02-11T02:54:46;101596.14;;;3.31;37.74
70690;BME280;58267;51.156;17.044;2023-02-11T02:56:59;101592.87;;;3.34;38.09
70690;BME280;58267;51.156;17.044;2023-02-11T02:59:32;101591.20;;;3.37;38.04
70690;BME280;58267;51.156;17.044;2023-02-11T03:01:53;101585.83;;;3.48;37.84
70690;BME280;58267;51.156;17.044;2023-02-11T03:04:17;101582.37;;;3.39;37.52
70690;BME280;58267;51.156;17.044;2023-02-11T03:06:45;101578.03;;;2.81;38.34
70690;BME280;58267;51.156;17.044;2023-02-11T03:09:06;101574.58;;;3.25;38.05
70690;BME280;58267;51.156;17.044;2023-02-11T03:11:28;101571.34;;;3.20;38.10
70690;BME280;58267;51.156;17.044;2023-02-11T03:13:54;101581.99;;;3.28;37.85
70690;BME280;58267;51.156;17.044;2023-02-11T03:16:20;101576.70;;;3.50;37.67
70690;BME280;58267;51.156;17.044;2023-02-11T03:18:48;101565.37;;;3.32;37.53
70690;BME280;58267;51.156;17.044;2023-02-11T03:21:10;101573.91;;;3.27;37.52
70690;BME280;58267;51.156;17.044;2023-02-11T03:23:38;101588.90;;;3.35;37.41
70690;BME280;58267;51.156;17.044;2023-02-11T03:26:06;101584.38;;;3.59;37.08
70690;BME280;58267;51.156;17.044;2023-02-11T03:28:30;101577.63;;;3.22;37.28
70690;BME280;58267;51.156;17.044;2023-02-11T03:30:57;101580.98;;;3.82;36.71
70690;BME280;58267;51.156;17.044;2023-02-11T03:33:23;101578.34;;;3.48;37.09
70690;BME280;58267;51.156;17.044;2023-02-11T03:35:46;101580.27;;;3.81;36.69
70690;BME280;58267;51.156;17.044;2023-02-11T03:38:12;101579.60;;;3.79;36.38
70690;BME280;58267;51.156;17.044;2023-02-11T03:40:36;101583.75;;;4.06;36.34
70690;BME280;58267;51.156;17.044;2023-02-11T03:43:02;101579.98;;;4.43;35.77
70690;BME280;58267;51.156;17.044;2023-02-11T03:45:26;101583.32;;;3.93;36.74
70690;BME280;58267;51.156;17.044;2023-02-11T03:47:54;101578.97;;;4.04;36.03
70690;BME280;58267;51.156;17.044;2023-02-11T03:50:17;101578.14;;;4.52;35.67
70690;BME280;58267;51.156;17.044;2023-02-11T03:52:41;101569.49;;;4.24;35.66
70690;BME280;58267;51.156;17.044;2023-02-11T03:55:09;101568.12;;;4.61;35.20
70690;BME280;58267;51.156;17.044;2023-02-11T03:57:32;101566.43;;;4.51;35.29
70690;BME280;58267;51.156;17.044;2023-02-11T03:59:58;101559.87;;;4.06;35.74
70690;BME280;58267;51.156;17.044;2023-02-11T04:02:26;101562.52;;;3.77;36.03
70690;BME280;58267;51.156;17.044;2023-02-11T04:04:48;101554.68;;;4.41;36.05
70690;BME280;58267;51.156;17.044;2023-02-11T04:07:14;101557.23;;;3.47;36.55
70690;BME280;58267;51.156;17.044;2023-02-11T04:09:39;101546.43;;;4.11;35.86
70690;BME280;58267;51.156;17.044;2023-02-11T04:12:05;101537.36;;;3.94;36.03
70690;BME280;58267;51.156;17.044;2023-02-11T04:14:30;101533.92;;;4.17;36.02
70690;BME280;58267;51.156;17.044;2023-02-11T04:16:55;101530.41;;;4.35;35.52
70690;BME280;58267;51.156;17.044;2023-02-11T04:19:22;101523.69;;;4.42;35.71
70690;BME280;58267;51.156;17.044;2023-02-11T04:21:47;101518.85;;;4.26;35.93
70690;BME280;58267;51.156;17.044;2023-02-11T04:24:13;101513.76;;;3.85;36.31
70690;BME280;58267;51.156;17.044;2023-02-11T04:26:38;101509.80;;;3.72;36.40
70690;BME280;58267;51.156;17.044;2023-02-11T04:29:04;101506.07;;;3.42;36.84
70690;BME280;58267;51.156;17.044;2023-02-11T04:31:29;101494.90;;;3.51;37.04
70690;BME280;58267;51.156;17.044;2023-02-11T04:33:55;101491.44;;;3.48;37.51
70690;BME280;58267;51.156;17.044;2023-02-11T04:36:20;101491.31;;;3.59;37.35
70690;BME280;58267;51.156;17.044;2023-02-11T04:38:45;101492.45;;;3.35;37.67
70690;BME280;58267;51.156;17.044;2023-02-11T04:41:11;101496.65;;;4.01;36.47
70690;BME280;58267;51.156;17.044;2023-02-11T04:43:37;101503.17;;;4.00;36.49
70690;BME280;58267;51.156;17.044;2023-02-11T04:46:02;101500.64;;;3.73;36.47
70690;BME280;58267;51.156;17.044;2023-02-11T04:48:27;101504.84;;;3.46;37.03
70690;BME280;58267;51.156;17.044;2023-02-11T04:50:52;101503.29;;;2.91;37.84
70690;BME280;58267;51.156;17.044;2023-02-11T04:53:18;101504.85;;;3.53;37.46
70690;BME280;58267;51.156;17.044;2023-02-11T04:55:44;101501.76;;;3.71;37.30
70690;BME280;58267;51.156;17.044;2023-02-11T04:58:09;101495.09;;;3.19;37.60
70690;BME280;58267;51.156;17.044;2023-02-11T05:00:34;101489.30;;;3.32;37.76
70690;BME280;58267;51.156;17.044;2023-02-11T05:02:59;101488.67;;;3.37;37.80
70690;BME280;58267;51.156;17.044;2023-02-11T05:05:25;101483.45;;;3.67;37.36
70690;BME280;58267;51.156;17.044;2023-02-11T05:07:50;101474.94;;;2.80;38.00
70690;BME280;58267;51.156;17.044;2023-02-11T05:10:16;101471.21;;;2.99;38.28
70690;BME280;58267;51.156;17.044;2023-02-11T05:12:41;101461.56;;;3.44;37.96
70690;BME280;58267;51.156;17.044;2023-02-11T05:15:08;101455.37;;;2.96;38.23
70690;BME280;58267;51.156;17.044;2023-02-11T05:17:33;101451.20;;;3.01;38.21
70690;BME280;58267;51.156;17.044;2023-02-11T05:19:59;101448.67;;;2.89;38.25
70690;BME280;58267;51.156;17.044;2023-02-11T05:22:25;101449.93;;;2.79;38.35
70690;BME280;58267;51.156;17.044;2023-02-11T05:24:50;101448.37;;;3.33;37.73
70690;BME280;58267;51.156;17.044;2023-02-11T05:27:15;101449.23;;;3.69;37.40
70690;BME280;58267;51.156;17.044;2023-02-11T05:29:41;101450.41;;;3.04;37.78
70690;BME280;58267;51.156;17.044;2023-02-11T05:32:07;101439.15;;;3.25;37.57
70690;BME280;58267;51.156;17.044;2023-02-11T05:34:32;101438.02;;;3.00;37.57
70690;BME280;58267;51.156;17.044;2023-02-11T05:36:58;101439.73;;;3.04;37.60
70690;BME280;58267;51.156;17.044;2023-02-11T05:39:24;101448.87;;;3.21;37.45
70690;BME280;58267;51.156;17.044;2023-02-11T05:41:49;101446.04;;;3.43;37.28
70690;BME280;58267;51.156;17.044;2023-02-11T05:44:14;101449.22;;;3.43;37.18
70690;BME280;58267;51.156;17.044;2023-02-11T05:46:40;101448.40;;;3.85;36.70
70690;BME280;58267;51.156;17.044;2023-02-11T05:49:06;101446.39;;;4.23;36.16
70690;BME280;58267;51.156;17.044;2023-02-11T05:51:31;101448.18;;;3.70;36.11
70690;BME280;58267;51.156;17.044;2023-02-11T05:53:56;101452.03;;;3.94;36.16
70690;BME280;58267;51.156;17.044;2023-02-11T05:56:22;101450.39;;;3.59;36.43
70690;BME280;58267;51.156;17.044;2023-02-11T05:58:47;101443.61;;;3.13;37.08
70690;BME280;58267;51.156;17.044;2023-02-11T06:01:13;101439.07;;;3.81;36.62
70690;BME280;58267;51.156;17.044;2023-02-11T06:03:38;101442.55;;;3.61;36.60
70690;BME280;58267;51.156;17.044;2023-02-11T06:06:04;101443.44;;;3.50;36.68
70690;BME280;58267;51.156;17.044;2023-02-11T06:08:29;101437.64;;;3.65;37.08
70690;BME280;58267;51.156;17.044;2023-02-11T06:10:54;101439.61;;;3.70;36.80
70690;BME280;58267;51.156;17.044;2023-02-11T06:13:19;101437.58;;;4.06;36.55
70690;BME280;58267;51.156;17.044;2023-02-11T06:18:10;101435.71;;;4.31;36.28
70690;BME280;58267;51.156;17.044;2023-02-11T06:20:37;101438.05;;;4.31;36.29
70690;BME280;58267;51.156;17.044;2023-02-11T06:23:01;101433.44;;;4.00;36.59
70690;BME280;58267;51.156;17.044;2023-02-11T06:25:27;101436.22;;;3.99;36.34
70690;BME280;58267;51.156;17.044;2023-02-11T06:27:52;101440.18;;;3.97;36.49
70690;BME280;58267;51.156;17.044;2023-02-11T06:30:17;101434.33;;;3.54;37.54
70690;BME280;58267;51.156;17.044;2023-02-11T06:32:43;101428.73;;;3.04;37.96
70690;BME280;58267;51.156;17.044;2023-02-11T06:35:09;101432.14;;;4.32;37.07
70690;BME280;58267;51.156;17.044;2023-02-11T06:37:34;101432.92;;;4.08;37.09
70690;BME280;58267;51.156;17.044;2023-02-11T06:40:00;101433.18;;;4.31;36.52
70690;BME280;58267;51.156;17.044;2023-02-11T06:42:25;101435.20;;;4.86;36.22
70690;BME280;58267;51.156;17.044;2023-02-11T06:44:51;101431.23;;;4.85;35.93
70690;BME280;58267;51.156;17.044;2023-02-11T06:47:16;101431.71;;;4.01;37.41
70690;BME280;58267;51.156;17.044;2023-02-11T06:49:42;101429.82;;;4.44;36.49
70690;BME280;58267;51.156;17.044;2023-02-11T06:52:07;101429.20;;;4.88;36.26
70690;BME280;58267;51.156;17.044;2023-02-11T06:54:33;101427.93;;;4.82;36.02
70690;BME280;58267;51.156;17.044;2023-02-11T06:56:58;101427.60;;;5.15;35.73
70690;BME280;58267;51.156;17.044;2023-02-11T06:59:23;101431.36;;;5.12;35.65
70690;BME280;58267;51.156;17.044;2023-02-11T07:01:49;101432.31;;;5.09;35.63
70690;BME280;58267;51.156;17.044;2023-02-11T07:04:15;101431.81;;;4.26;36.44
70690;BME280;58267;51.156;17.044;2023-02-11T07:06:40;101423.73;;;4.43;36.72
70690;BME280;58267;51.156;17.044;2023-02-11T07:09:06;101417.79;;;4.51;36.79
70690;BME280;58267;51.156;17.044;2023-02-11T07:11:35;101410.56;;;3.97;37.38
70690;BME280;58267;51.156;17.044;2023-02-11T07:14:03;101402.84;;;4.27;37.47
70690;BME280;58267;51.156;17.044;2023-02-11T07:16:27;101398.64;;;4.08;37.47
70690;BME280;58267;51.156;17.044;2023-02-11T07:18:52;101396.75;;;4.56;36.85
70690;BME280;58267;51.156;17.044;2023-02-11T07:21:19;101401.34;;;4.31;37.63
70690;BME280;58267;51.156;17.044;2023-02-11T07:23:43;101404.59;;;4.86;36.37
70690;BME280;58267;51.156;17.044;2023-02-11T07:26:11;101410.58;;;4.80;36.73
70690;BME280;58267;51.156;17.044;2023-02-11T07:28:36;101414.75;;;3.45;38.72
70690;BME280;58267;51.156;17.044;2023-02-11T07:31:05;101409.62;;;4.12;38.54
70690;BME280;58267;51.156;17.044;2023-02-11T07:33:25;101398.06;;;4.37;37.90
70690;BME280;58267;51.156;17.044;2023-02-11T07:35:50;101394.91;;;3.92;38.82
70690;BME280;58267;51.156;17.044;2023-02-11T07:38:16;101405.35;;;5.06;37.45
70690;BME280;58267;51.156;17.044;2023-02-11T07:40:41;101403.48;;;4.58;38.19
70690;BME280;58267;51.156;17.044;2023-02-11T07:43:06;101404.10;;;5.46;37.06
70690;BME280;58267;51.156;17.044;2023-02-11T07:45:32;101406.70;;;4.23;39.30
70690;BME280;58267;51.156;17.044;2023-02-11T07:47:58;101402.32;;;5.28;37.94
70690;BME280;58267;51.156;17.044;2023-02-11T07:50:23;101400.66;;;4.22;39.06
70690;BME280;58267;51.156;17.044;2023-02-11T07:52:49;101407.89;;;3.94;39.70
70690;BME280;58267;51.156;17.044;2023-02-11T07:55:15;101395.26;;;5.27;38.67
70690;BME280;58267;51.156;17.044;2023-02-11T07:57:40;101397.86;;;5.83;38.00
70690;BME280;58267;51.156;17.044;2023-02-11T08:00:06;101405.67;;;5.20;38.39
70690;BME280;58267;51.156;17.044;2023-02-11T08:02:30;101416.10;;;4.01;41.43
70690;BME280;58267;51.156;17.044;2023-02-11T08:04:56;101418.58;;;5.20;39.78
70690;BME280;58267;51.156;17.044;2023-02-11T08:07:23;101420.99;;;4.59;40.74
70690;BME280;58267;51.156;17.044;2023-02-11T08:09:47;101416.09;;;4.26;41.75
70690;BME280;58267;51.156;17.044;2023-02-11T08:12:13;101416.48;;;4.80;41.13
70690;BME280;58267;51.156;17.044;2023-02-11T08:14:38;101411.41;;;4.03;43.67
70690;BME280;58267;51.156;17.044;2023-02-11T08:17:03;101410.28;;;3.55;44.64
70690;BME280;58267;51.156;17.044;2023-02-11T08:19:29;101410.58;;;3.35;46.34
70690;BME280;58267;51.156;17.044;2023-02-11T08:21:55;101411.67;;;3.08;47.62
70690;BME280;58267;51.156;17.044;2023-02-11T08:24:21;101426.55;;;3.12;47.74
70690;BME280;58267;51.156;17.044;2023-02-11T08:26:46;101424.41;;;3.52;47.45
70690;BME280;58267;51.156;17.044;2023-02-11T08:29:13;101432.38;;;4.17;46.41
70690;BME280;58267;51.156;17.044;2023-02-11T08:31:39;101428.59;;;3.86;47.22
70690;BME280;58267;51.156;17.044;2023-02-11T08:34:03;101422.22;;;4.25;46.86
70690;BME280;58267;51.156;17.044;2023-02-11T08:36:29;101426.79;;;3.12;48.70
70690;BME280;58267;51.156;17.044;2023-02-11T08:38:54;101416.77;;;3.40;49.73
70690;BME280;58267;51.156;17.044;2023-02-11T08:41:19;101411.59;;;3.91;48.42
70690;BME280;58267;51.156;17.044;2023-02-11T08:43:44;101411.45;;;4.06;48.40
70690;BME280;58267;51.156;17.044;2023-02-11T08:46:12;101430.39;;;2.70;51.82
70690;BME280;58267;51.156;17.044;2023-02-11T08:48:35;101400.05;;;2.73;52.97
70690;BME280;58267;51.156;17.044;2023-02-11T08:51:05;101405.21;;;1.88;55.20
70690;BME280;58267;51.156;17.044;2023-02-11T08:53:26;101407.11;;;2.82;53.01
70690;BME280;58267;51.156;17.044;2023-02-11T08:55:52;101410.73;;;2.69;53.10
70690;BME280;58267;51.156;17.044;2023-02-11T08:58:17;101405.61;;;2.79;52.79
70690;BME280;58267;51.156;17.044;2023-02-11T09:00:43;101397.45;;;3.04;52.38
70690;BME280;58267;51.156;17.044;2023-02-11T09:03:08;101391.84;;;2.95;52.56
70690;BME280;58267;51.156;17.044;2023-02-11T09:05:34;101370.87;;;3.33;52.14
70690;BME280;58267;51.156;17.044;2023-02-11T09:07:59;101394.36;;;3.06;52.26
70690;BME280;58267;51.156;17.044;2023-02-11T09:10:25;101375.10;;;3.32;51.54
70690;BME280;58267;51.156;17.044;2023-02-11T09:12:50;101368.73;;;2.42;54.17
70690;BME280;58267;51.156;17.044;2023-02-11T09:15:15;101370.03;;;3.00;53.29
70690;BME280;58267;51.156;17.044;2023-02-11T09:17:41;101363.42;;;3.03;53.19
70690;BME280;58267;51.156;17.044;2023-02-11T09:20:08;101357.92;;;3.56;52.38
70690;BME280;58267;51.156;17.044;2023-02-11T09:22:33;101357.73;;;3.69;50.81
70690;BME280;58267;51.156;17.044;2023-02-11T09:24:58;101368.06;;;3.30;51.86
70690;BME280;58267;51.156;17.044;2023-02-11T09:27:23;101371.84;;;3.68;51.92
70690;BME280;58267;51.156;17.044;2023-02-11T09:29:49;101359.22;;;4.44;49.92
70690;BME280;58267;51.156;17.044;2023-02-11T09:32:14;101353.76;;;3.63;51.21
70690;BME280;58267;51.156;17.044;2023-02-11T09:34:40;101354.16;;;2.86;52.56
70690;BME280;58267;51.156;17.044;2023-02-11T09:37:05;101348.50;;;2.64;53.98
70690;BME280;58267;51.156;17.044;2023-02-11T09:39:31;101341.51;;;4.35;50.07
70690;BME280;58267;51.156;17.044;2023-02-11T09:42:07;101334.87;;;4.25;49.79
70690;BME280;58267;51.156;17.044;2023-02-11T09:44:24;101344.25;;;3.52;50.95
70690;BME280;58267;51.156;17.044;2023-02-11T09:46:53;101330.47;;;3.96;49.97
70690;BME280;58267;51.156;17.044;2023-02-11T09:49:18;101332.79;;;3.90;50.52
70690;BME280;58267;51.156;17.044;2023-02-11T09:51:43;101323.08;;;3.41;50.95
70690;BME280;58267;51.156;17.044;2023-02-11T09:54:10;101332.80;;;3.69;51.42
70690;BME280;58267;51.156;17.044;2023-02-11T09:56:30;101332.11;;;3.49;51.96
70690;BME280;58267;51.156;17.044;2023-02-11T09:58:55;101327.93;;;3.82;51.08
70690;BME280;58267;51.156;17.044;2023-02-11T10:01:27;101327.15;;;3.75;51.28
70690;BME280;58267;51.156;17.044;2023-02-11T10:03:55;101334.82;;;4.32;50.27
70690;BME280;58267;51.156;17.044;2023-02-11T10:06:22;101333.39;;;4.01;50.80
70690;BME280;58267;51.156;17.044;2023-02-11T10:08:43;101329.20;;;3.43;51.98
70690;BME280;58267;51.156;17.044;2023-02-11T10:11:07;101311.83;;;4.19;50.61
70690;BME280;58267;51.156;17.044;2023-02-11T10:13:39;101304.15;;;4.14;51.14
70690;BME280;58267;51.156;17.044;2023-02-11T10:16:01;101327.30;;;3.43;52.77
70690;BME280;58267;51.156;17.044;2023-02-11T10:18:34;101328.52;;;3.56;52.53
70690;BME280;58267;51.156;17.044;2023-02-11T10:20:52;101314.79;;;3.64;52.35
70690;BME280;58267;51.156;17.044;2023-02-11T10:23:16;101310.15;;;4.10;51.32
70690;BME280;58267;51.156;17.044;2023-02-11T10:25:38;101293.19;;;3.82;51.69
70690;BME280;58267;51.156;17.044;2023-02-11T10:28:11;101284.67;;;3.95;51.99
70690;BME280;58267;51.156;17.044;2023-02-11T10:30:31;101301.90;;;3.77;52.34
70690;BME280;58267;51.156;17.044;2023-02-11T10:32:58;101311.28;;;3.65;52.68
70690;BME280;58267;51.156;17.044;2023-02-11T10:35:20;101310.14;;;3.68;52.30
70690;BME280;58267;51.156;17.044;2023-02-11T10:37:44;101302.58;;;4.47;50.95
70690;BME280;58267;51.156;17.044;2023-02-11T10:40:13;101308.32;;;3.83;52.08
70690;BME280;58267;51.156;17.044;2023-02-11T10:42:35;101304.04;;;4.15;51.89
70690;BME280;58267;51.156;17.044;2023-02-11T10:45:03;101302.96;;;4.14;51.55
70690;BME280;58267;51.156;17.044;2023-02-11T10:47:29;101298.28;;;4.08;51.77
70690;BME280;58267;51.156;17.044;2023-02-11T10:49:52;101294.13;;;3.95;52.16
70690;BME280;58267;51.156;17.044;2023-02-11T10:52:21;101304.15;;;4.18;51.72
70690;BME280;58267;51.156;17.044;2023-02-11T10:57:16;101291.47;;;5.26;49.77
70690;BME280;58267;51.156;17.044;2023-02-11T10:59:35;101301.02;;;5.23;49.27
70690;BME280;58267;51.156;17.044;2023-02-11T11:02:01;101297.14;;;4.60;50.14
70690;BME280;58267;51.156;17.044;2023-02-11T11:04:33;101308.63;;;4.23;51.70
70690;BME280;58267;51.156;17.044;2023-02-11T11:06:50;101294.73;;;4.93;50.55
70690;BME280;58267;51.156;17.044;2023-02-11T11:11:50;101296.36;;;4.78;50.83
70690;BME280;58267;51.156;17.044;2023-02-11T11:14:17;101308.38;;;4.30;51.83
70690;BME280;58267;51.156;17.044;2023-02-11T11:16:35;101297.75;;;4.57;51.49
70690;BME280;58267;51.156;17.044;2023-02-11T11:21:34;101298.19;;;4.26;52.09
70690;BME280;58267;51.156;17.044;2023-02-11T11:23:53;101292.57;;;4.18;52.41
70690;BME280;58267;51.156;17.044;2023-02-11T11:26:16;101300.35;;;4.06;52.55
70690;BME280;58267;51.156;17.044;2023-02-11T11:28:50;101303.43;;;4.32;52.12
70690;BME280;58267;51.156;17.044;2023-02-11T11:31:12;101310.14;;;3.85;52.92
70690;BME280;58267;51.156;17.044;2023-02-11T11:33:33;101297.06;;;4.16;52.82
70690;BME280;58267;51.156;17.044;2023-02-11T11:36:02;101278.31;;;4.75;51.42
70690;BME280;58267;51.156;17.044;2023-02-11T11:38:24;101276.47;;;4.45;51.78
70690;BME280;58267;51.156;17.044;2023-02-11T11:43:17;101267.50;;;4.63;51.49
70690;BME280;58267;51.156;17.044;2023-02-11T11:45:52;101280.96;;;4.27;52.01
70690;BME280;58267;51.156;17.044;2023-02-11T11:48:11;101313.44;;;3.39;53.73
70690;BME280;58267;51.156;17.044;2023-02-11T11:50:34;101285.77;;;4.19;52.27
70690;BME280;58267;51.156;17.044;2023-02-11T11:53:02;101292.61;;;3.90;52.74
70690;BME280;58267;51.156;17.044;2023-02-11T11:55:27;101276.98;;;4.71;50.91
70690;BME280;58267;51.156;17.044;2023-02-11T11:57:48;101274.74;;;4.66;51.35
70690;BME280;58267;51.156;17.044;2023-02-11T12:00:16;101280.02;;;4.65;51.77
70690;BME280;58267;51.156;17.044;2023-02-11T12:05:09;101269.90;;;4.60;51.70
70690;BME280;58267;51.156;17.044;2023-02-11T12:07:40;101272.58;;;4.19;52.58
70690;BME280;58267;51.156;17.044;2023-02-11T12:12:30;101254.97;;;4.47;52.18
70690;BME280;58267;51.156;17.044;2023-02-11T12:14:54;101254.31;;;4.36;52.48
70690;BME280;58267;51.156;17.044;2023-02-11T12:17:22;101260.98;;;3.79;53.44
70690;BME280;58267;51.156;17.044;2023-02-11T12:19:46;101255.09;;;3.58;54.40
70690;BME280;58267;51.156;17.044;2023-02-11T12:22:09;101251.46;;;3.68;54.24
70690;BME280;58267;51.156;17.044;2023-02-11T12:24:43;101242.02;;;3.94;53.64
70690;BME280;58267;51.156;17.044;2023-02-11T12:26:58;101251.07;;;4.38;52.52
70690;BME280;58267;51.156;17.044;2023-02-11T12:29:26;101249.08;;;4.34;52.62
70690;BME280;58267;51.156;17.044;2023-02-11T12:31:56;101248.52;;;3.43;54.57
70690;BME280;58267;51.156;17.044;2023-02-11T12:34:22;101248.45;;;3.60;53.90
70690;BME280;58267;51.156;17.044;2023-02-11T12:36:43;101228.84;;;4.59;51.70
70690;BME280;58267;51.156;17.044;2023-02-11T12:39:08;101224.88;;;4.84;51.15
70690;BME280;58267;51.156;17.044;2023-02-11T12:41:40;101218.70;;;4.17;51.39
70690;BME280;58267;51.156;17.044;2023-02-11T12:43:52;101212.40;;;4.86;51.13
70690;BME280;58267;51.156;17.044;2023-02-11T12:46:28;101219.07;;;4.72;51.25
70690;BME280;58267;51.156;17.044;2023-02-11T12:48:53;101214.37;;;4.16;52.44
70690;BME280;58267;51.156;17.044;2023-02-11T12:51:16;101205.83;;;4.12;52.57
70690;BME280;58267;51.156;17.044;2023-02-11T12:53:48;101209.19;;;4.64;51.66
70690;BME280;58267;51.156;17.044;2023-02-11T12:56:04;101232.79;;;5.01;50.86
70690;BME280;58267;51.156;17.044;2023-02-11T12:58:27;101231.69;;;3.59;53.56
70690;BME280;58267;51.156;17.044;2023-02-11T13:00:55;101215.04;;;4.33;51.08
70690;BME280;58267;51.156;17.044;2023-02-11T13:03:21;101222.83;;;4.37;52.14